Helena — SCGL — position and weather

sailwx.info

Track history (hours):
 
Tides and Currents Weather Stations Pressure Air Temp Water Temp Dewpoint Dewpoint Depression Visibility Wind Speed Wind Dir Waves Ship Positions

Helena

Last reported at 2015-Mar-03 17:22 UTC. Time now 2015-Mar-05 02:41 UTC.
Position N 57°20' E 017°44'.

Length 169 m; draft 6.3 m.

Type: Cargo ship. MMSI: 265145000.

Date/timePositionNaut miles runAvg speedWind from/ knotsBaromVisibWave heightAir tempDewpointWater temp
2015-Mar-03 17:22N 57°20' E 017°44'1214.1
2015-Mar-03 16:29N 57°09' E 017°35'11913.3
2015-Mar-03 07:33N 55°37' E 015°19'1413.9
2015-Mar-03 06:33N 55°30' E 014°58'1413.9
2015-Mar-03 05:33N 55°22' E 014°38'1313.3
2015-Mar-03 04:33N 55°12' E 014°23'1313.5
2015-Mar-03 03:33N 55°01' E 014°08'1414.3
2015-Mar-03 02:33N 54°57' E 013°45'1514.7
2015-Mar-03 01:33N 54°52' E 013°21'1614.6
2015-Mar-03 00:29N 54°47' E 012°55'1314.3
2015-Mar-02 23:33N 54°40' E 012°35'1514.7
2015-Mar-02 22:33N 54°30' E 012°16'1413.8
2015-Mar-02 21:33N 54°23' E 011°56'1414.4
2015-Mar-02 20:33N 54°15' E 011°35'1413.8
2015-Mar-02 19:33N 54°07' E 011°16'3 0.1
2015-Mar-01 07:33N 54°07' E 011°10'1413.7
2015-Mar-01 06:34N 54°15' E 011°30'1414.1
2015-Mar-01 05:34N 54°22' E 011°50'1413.8
2015-Mar-01 04:33N 54°29' E 012°11'1413.6
2015-Mar-01 03:33N 54°40' E 012°24'1414.4
2015-Mar-01 02:33N 54°48' E 012°45'1414.5
2015-Mar-01 01:33N 54°53' E 013°09'1414.5
2015-Mar-01 00:33N 54°58' E 013°32'1414.4
2015-Feb-28 23:33N 55°03' E 013°56'1313.3
2015-Feb-28 22:33N 55°11' E 014°15'1514.6
2015-Feb-28 21:33N 55°22' E 014°31'1514.6
2015-Feb-28 20:33N 55°31' E 014°51'1514.9
2015-Feb-28 19:33N 55°39' E 015°13'10313.7
2015-Feb-28 12:04N 56°59' E 017°11'815.0
2015-Feb-28 11:33N 57°06' E 017°15'1414.5
2015-Feb-28 10:33N 57°19' E 017°25'  
2015-Feb-24 04:27N 55°37' E 015°23'1517.0
2015-Feb-24 03:33N 55°29' E 014°60'1716.6
2015-Feb-24 02:33N 55°21' E 014°34'1716.5
2015-Feb-24 01:33N 55°08' E 014°16'1616.3
2015-Feb-24 00:33N 54°58' E 013°53'1616.4
2015-Feb-23 23:33N 54°53' E 013°26'1616.4
2015-Feb-23 22:33N 54°48' E 012°59'1615.9
2015-Feb-23 21:33N 54°41' E 012°35'1515.5
2015-Feb-23 20:33N 54°30' E 012°16'1514.8
2015-Feb-23 19:33N 54°22' E 011°54'1616.5
2015-Feb-23 18:33N 54°13' E 011°31'1916.6
2015-Feb-23 17:24N 54°03' E 011°03'5 0.2
2015-Feb-22 19:21N 54°06' E 011°08'1114.2
2015-Feb-22 18:33N 54°13' E 011°23'1211.5
2015-Feb-22 17:33N 54°19' E 011°40'1212.1
2015-Feb-22 16:33N 54°25' E 011°58'1110.6
2015-Feb-22 15:33N 54°32' E 012°13'1111.2
2015-Feb-22 14:33N 54°40' E 012°24'1211.7
2015-Feb-22 13:31N 54°47' E 012°42'1111.8
2015-Feb-22 12:33N 54°51' E 013°01'1411.9
2015-Feb-22 11:20N 54°56' E 013°24'810.9
2015-Feb-22 10:33N 54°58' E 013°38'1211.8
2015-Feb-22 09:32N 55°03' E 013°58'1111.5
2015-Feb-22 08:33N 55°10' E 014°13'1111.4
2015-Feb-22 07:33N 55°19' E 014°26'1111.4
2015-Feb-22 06:33N 55°27' E 014°39'1111.2
2015-Feb-22 05:32N 55°33' E 014°56'1111.4
2015-Feb-22 04:33N 55°39' E 015°13'  
Track history (hours):
 
Tides and Currents Weather Stations Pressure Air Temp Water Temp Dewpoint Dewpoint Depression Visibility Wind Speed Wind Dir Waves Ship Positions

Helena

Last reported at 2015-Mar-03 17:22 UTC. Time now 2015-Mar-05 02:41 UTC.
Position N 57°20' E 017°44'.

Length 169 m; draft 6.3 m.

Type: Cargo ship. MMSI: 265145000.

Date/timePositionNaut miles runAvg speedWind from/ knotsBaromVisibWave heightAir tempDewpointWater temp
2015-Mar-03 17:22N 57°20' E 017°44'1214.1
2015-Mar-03 16:29N 57°09' E 017°35'11913.3
2015-Mar-03 07:33N 55°37' E 015°19'1413.9
2015-Mar-03 06:33N 55°30' E 014°58'1413.9
2015-Mar-03 05:33N 55°22' E 014°38'1313.3
2015-Mar-03 04:33N 55°12' E 014°23'1313.5
2015-Mar-03 03:33N 55°01' E 014°08'1414.3
2015-Mar-03 02:33N 54°57' E 013°45'1514.7
2015-Mar-03 01:33N 54°52' E 013°21'1614.6
2015-Mar-03 00:29N 54°47' E 012°55'1314.3
2015-Mar-02 23:33N 54°40' E 012°35'1514.7
2015-Mar-02 22:33N 54°30' E 012°16'1413.8
2015-Mar-02 21:33N 54°23' E 011°56'1414.4
2015-Mar-02 20:33N 54°15' E 011°35'1413.8
2015-Mar-02 19:33N 54°07' E 011°16'3 0.1
2015-Mar-01 07:33N 54°07' E 011°10'1413.7
2015-Mar-01 06:34N 54°15' E 011°30'1414.1
2015-Mar-01 05:34N 54°22' E 011°50'1413.8
2015-Mar-01 04:33N 54°29' E 012°11'1413.6
2015-Mar-01 03:33N 54°40' E 012°24'1414.4
2015-Mar-01 02:33N 54°48' E 012°45'1414.5
2015-Mar-01 01:33N 54°53' E 013°09'1414.5
2015-Mar-01 00:33N 54°58' E 013°32'1414.4
2015-Feb-28 23:33N 55°03' E 013°56'1313.3
2015-Feb-28 22:33N 55°11' E 014°15'1514.6
2015-Feb-28 21:33N 55°22' E 014°31'1514.6
2015-Feb-28 20:33N 55°31' E 014°51'1514.9
2015-Feb-28 19:33N 55°39' E 015°13'10313.7
2015-Feb-28 12:04N 56°59' E 017°11'815.0
2015-Feb-28 11:33N 57°06' E 017°15'1414.5
2015-Feb-28 10:33N 57°19' E 017°25'  
2015-Feb-24 04:27N 55°37' E 015°23'1517.0
2015-Feb-24 03:33N 55°29' E 014°60'1716.6
2015-Feb-24 02:33N 55°21' E 014°34'1716.5
2015-Feb-24 01:33N 55°08' E 014°16'1616.3
2015-Feb-24 00:33N 54°58' E 013°53'1616.4
2015-Feb-23 23:33N 54°53' E 013°26'1616.4
2015-Feb-23 22:33N 54°48' E 012°59'1615.9
2015-Feb-23 21:33N 54°41' E 012°35'1515.5
2015-Feb-23 20:33N 54°30' E 012°16'1514.8
2015-Feb-23 19:33N 54°22' E 011°54'1616.5
2015-Feb-23 18:33N 54°13' E 011°31'1916.6
2015-Feb-23 17:24N 54°03' E 011°03'5 0.2
2015-Feb-22 19:21N 54°06' E 011°08'1114.2
2015-Feb-22 18:33N 54°13' E 011°23'1211.5
2015-Feb-22 17:33N 54°19' E 011°40'1212.1
2015-Feb-22 16:33N 54°25' E 011°58'1110.6
2015-Feb-22 15:33N 54°32' E 012°13'1111.2
2015-Feb-22 14:33N 54°40' E 012°24'1211.7
2015-Feb-22 13:31N 54°47' E 012°42'1111.8
2015-Feb-22 12:33N 54°51' E 013°01'1411.9
2015-Feb-22 11:20N 54°56' E 013°24'810.9
2015-Feb-22 10:33N 54°58' E 013°38'1211.8
2015-Feb-22 09:32N 55°03' E 013°58'1111.5
2015-Feb-22 08:33N 55°10' E 014°13'1111.4
2015-Feb-22 07:33N 55°19' E 014°26'1111.4
2015-Feb-22 06:33N 55°27' E 014°39'1111.2
2015-Feb-22 05:32N 55°33' E 014°56'1111.4
2015-Feb-22 04:33N 55°39' E 015°13'  

Dump ship's entire track history